sensor_id;sensor_type;location;lat;lon;timestamp;pressure;altitude;pressure_sealevel;temperature;humidity
41624;BME280;27319;50.306;18.926;2023-03-14T00:01:57;96675.59;;;8.95;70.90
41624;BME280;27319;50.306;18.926;2023-03-14T00:05:38;96663.19;;;8.87;71.20
41624;BME280;27319;50.306;18.926;2023-03-14T00:08:59;96647.59;;;8.91;71.12
41624;BME280;27319;50.306;18.926;2023-03-14T00:13:00;96636.06;;;8.90;71.15
41624;BME280;27319;50.306;18.926;2023-03-14T00:17:00;96628.13;;;9.03;70.49
41624;BME280;27319;50.306;18.926;2023-03-14T00:21:02;96615.34;;;9.05;70.15
41624;BME280;27319;50.306;18.926;2023-03-14T00:25:03;96596.25;;;9.08;70.69
41624;BME280;27319;50.306;18.926;2023-03-14T00:29:03;96598.69;;;9.03;70.53
41624;BME280;27319;50.306;18.926;2023-03-14T00:33:04;96594.34;;;9.02;71.23
41624;BME280;27319;50.306;18.926;2023-03-14T00:37:05;96575.28;;;9.18;70.53
41624;BME280;27319;50.306;18.926;2023-03-14T00:41:10;96569.88;;;9.05;70.36
41624;BME280;27319;50.306;18.926;2023-03-14T00:45:06;96553.00;;;9.05;71.01
41624;BME280;27319;50.306;18.926;2023-03-14T00:49:07;96557.69;;;9.03;71.27
41624;BME280;27319;50.306;18.926;2023-03-14T00:53:08;96557.13;;;9.07;70.92
41624;BME280;27319;50.306;18.926;2023-03-14T00:57:09;96538.56;;;8.99;71.28
41624;BME280;27319;50.306;18.926;2023-03-14T01:01:12;96543.03;;;8.86;72.03
41624;BME280;27319;50.306;18.926;2023-03-14T01:04:51;96540.72;;;8.76;71.93
41624;BME280;27319;50.306;18.926;2023-03-14T01:08:11;96532.91;;;8.75;72.50
41624;BME280;27319;50.306;18.926;2023-03-14T01:12:12;96547.22;;;8.61;73.05
41624;BME280;27319;50.306;18.926;2023-03-14T01:16:13;96525.75;;;8.48;73.98
41624;BME280;27319;50.306;18.926;2023-03-14T01:20:14;96507.41;;;8.45;74.18
41624;BME280;27319;50.306;18.926;2023-03-14T01:24:15;96499.63;;;8.50;73.48
41624;BME280;27319;50.306;18.926;2023-03-14T01:28:15;96470.41;;;8.48;73.96
41624;BME280;27319;50.306;18.926;2023-03-14T01:32:16;96472.75;;;8.58;72.64
41624;BME280;27319;50.306;18.926;2023-03-14T01:36:17;96465.94;;;8.55;72.92
41624;BME280;27319;50.306;18.926;2023-03-14T01:40:18;96466.75;;;8.56;72.60
41624;BME280;27319;50.306;18.926;2023-03-14T01:44:18;96474.22;;;8.67;71.93
41624;BME280;27319;50.306;18.926;2023-03-14T01:48:19;96471.06;;;8.97;70.10
41624;BME280;27319;50.306;18.926;2023-03-14T01:52:07;96466.28;;;8.86;71.61
41624;BME280;27319;50.306;18.926;2023-03-14T01:56:08;96450.38;;;8.72;71.37
41624;BME280;27319;50.306;18.926;2023-03-14T02:00:11;96461.84;;;8.59;73.29
41624;BME280;27319;50.306;18.926;2023-03-14T02:03:54;96468.25;;;8.65;72.26
41624;BME280;27319;50.306;18.926;2023-03-14T02:10:43;96462.63;;;8.53;72.92
41624;BME280;27319;50.306;18.926;2023-03-14T02:14:43;96481.44;;;8.66;72.29
41624;BME280;27319;50.306;18.926;2023-03-14T02:18:44;96480.09;;;8.96;69.75
41624;BME280;27319;50.306;18.926;2023-03-14T02:22:45;96473.16;;;9.08;69.03
41624;BME280;27319;50.306;18.926;2023-03-14T02:30:00;96428.59;;;8.81;72.30
41624;BME280;27319;50.306;18.926;2023-03-14T02:33:59;96404.94;;;8.78;71.62
41624;BME280;27319;50.306;18.926;2023-03-14T02:38:25;96409.66;;;8.76;71.79
41624;BME280;27319;50.306;18.926;2023-03-14T02:42:25;96422.91;;;9.10;69.67
41624;BME280;27319;50.306;18.926;2023-03-14T02:46:25;96433.25;;;9.26;68.50
41624;BME280;27319;50.306;18.926;2023-03-14T02:50:27;96445.19;;;9.30;68.25
41624;BME280;27319;50.306;18.926;2023-03-14T02:54:27;96436.72;;;9.07;70.20
41624;BME280;27319;50.306;18.926;2023-03-14T02:58:28;96433.19;;;9.07;69.99
41624;BME280;27319;50.306;18.926;2023-03-14T03:02:29;96434.19;;;8.99;70.36
41624;BME280;27319;50.306;18.926;2023-03-14T03:05:58;96423.31;;;9.01;69.87
41624;BME280;27319;50.306;18.926;2023-03-14T03:09:18;96416.09;;;8.95;70.17
41624;BME280;27319;50.306;18.926;2023-03-14T03:13:19;96418.31;;;8.78;71.38
41624;BME280;27319;50.306;18.926;2023-03-14T03:17:20;96422.00;;;8.71;71.96
41624;BME280;27319;50.306;18.926;2023-03-14T03:21:21;96443.66;;;8.89;70.34
41624;BME280;27319;50.306;18.926;2023-03-14T03:25:21;96450.25;;;8.93;70.02
41624;BME280;27319;50.306;18.926;2023-03-14T03:29:22;96469.63;;;9.01;69.40
41624;BME280;27319;50.306;18.926;2023-03-14T03:33:23;96514.63;;;9.58;66.68
41624;BME280;27319;50.306;18.926;2023-03-14T03:37:24;96529.06;;;9.63;67.13
41624;BME280;27319;50.306;18.926;2023-03-14T03:41:25;96541.88;;;9.87;65.48
41624;BME280;27319;50.306;18.926;2023-03-14T03:45:26;96547.84;;;9.76;65.48
41624;BME280;27319;50.306;18.926;2023-03-14T03:49:30;96519.81;;;9.72;66.13
41624;BME280;27319;50.306;18.926;2023-03-14T03:53:30;96522.91;;;9.63;66.47
41624;BME280;27319;50.306;18.926;2023-03-14T03:57:31;96520.19;;;9.43;66.33
41624;BME280;27319;50.306;18.926;2023-03-14T04:01:32;96500.38;;;9.31;67.65
41624;BME280;27319;50.306;18.926;2023-03-14T04:05:33;96498.88;;;9.09;69.17
41624;BME280;27319;50.306;18.926;2023-03-14T04:09:34;96486.63;;;8.81;70.25
41624;BME280;27319;50.306;18.926;2023-03-14T04:13:34;96494.81;;;8.73;72.27
41624;BME280;27319;50.306;18.926;2023-03-14T04:17:35;96489.88;;;8.76;71.49
41624;BME280;27319;50.306;18.926;2023-03-14T04:21:36;96476.47;;;8.63;71.43
41624;BME280;27319;50.306;18.926;2023-03-14T04:25:37;96478.66;;;8.53;73.01
41624;BME280;27319;50.306;18.926;2023-03-14T04:29:37;96477.81;;;8.40;74.15
41624;BME280;27319;50.306;18.926;2023-03-14T04:33:38;96463.47;;;8.54;73.55
41624;BME280;27319;50.306;18.926;2023-03-14T04:37:39;96437.91;;;8.45;74.57
41624;BME280;27319;50.306;18.926;2023-03-14T04:41:40;96422.91;;;8.37;76.02
41624;BME280;27319;50.306;18.926;2023-03-14T04:45:41;96430.78;;;8.18;76.15
41624;BME280;27319;50.306;18.926;2023-03-14T04:49:41;96415.19;;;8.21;76.50
41624;BME280;27319;50.306;18.926;2023-03-14T04:53:42;96417.31;;;8.05;76.62
41624;BME280;27319;50.306;18.926;2023-03-14T04:57:43;96426.47;;;7.89;75.71
41624;BME280;27319;50.306;18.926;2023-03-14T05:01:44;96414.97;;;7.89;76.55
41624;BME280;27319;50.306;18.926;2023-03-14T05:05:25;96410.53;;;8.02;76.61
41624;BME280;27319;50.306;18.926;2023-03-14T05:08:26;96405.09;;;7.89;77.36
41624;BME280;27319;50.306;18.926;2023-03-14T05:11:27;96382.44;;;7.79;76.60
41624;BME280;27319;50.306;18.926;2023-03-14T05:14:28;96394.16;;;8.12;75.01
41624;BME280;27319;50.306;18.926;2023-03-14T05:17:30;96390.97;;;8.23;74.22
41624;BME280;27319;50.306;18.926;2023-03-14T05:20:32;96383.66;;;8.44;73.32
41624;BME280;27319;50.306;18.926;2023-03-14T05:23:33;96384.28;;;8.59;72.75
41624;BME280;27319;50.306;18.926;2023-03-14T05:26:54;96371.16;;;8.64;72.50
41624;BME280;27319;50.306;18.926;2023-03-14T05:30:54;96372.44;;;8.75;70.85
41624;BME280;27319;50.306;18.926;2023-03-14T05:34:55;96364.66;;;8.93;70.30
41624;BME280;27319;50.306;18.926;2023-03-14T05:38:56;96374.13;;;9.08;69.70
41624;BME280;27319;50.306;18.926;2023-03-14T05:42:57;96369.41;;;9.04;69.78
41624;BME280;27319;50.306;18.926;2023-03-14T05:46:58;96365.69;;;8.98;70.28
41624;BME280;27319;50.306;18.926;2023-03-14T05:50:59;96373.53;;;9.19;68.98
41624;BME280;27319;50.306;18.926;2023-03-14T05:54:59;96369.41;;;9.10;69.93
41624;BME280;27319;50.306;18.926;2023-03-14T05:59:00;96358.09;;;9.15;70.03
41624;BME280;27319;50.306;18.926;2023-03-14T06:02:56;96353.75;;;9.07;69.97
41624;BME280;27319;50.306;18.926;2023-03-14T06:06:17;96346.78;;;9.19;69.76
41624;BME280;27319;50.306;18.926;2023-03-14T06:09:33;96354.59;;;9.14;70.51
41624;BME280;27319;50.306;18.926;2023-03-14T06:12:34;96338.13;;;9.24;69.59
41624;BME280;27319;50.306;18.926;2023-03-14T06:15:35;96350.47;;;9.25;69.54
41624;BME280;27319;50.306;18.926;2023-03-14T06:18:36;96345.09;;;9.25;70.90
41624;BME280;27319;50.306;18.926;2023-03-14T06:21:37;96337.69;;;9.33;69.81
41624;BME280;27319;50.306;18.926;2023-03-14T06:24:38;96331.31;;;9.34;70.24
41624;BME280;27319;50.306;18.926;2023-03-14T06:27:59;96325.56;;;9.31;70.19
41624;BME280;27319;50.306;18.926;2023-03-14T06:31:59;96323.50;;;9.26;70.86
41624;BME280;27319;50.306;18.926;2023-03-14T06:36:00;96320.22;;;9.18;71.49
41624;BME280;27319;50.306;18.926;2023-03-14T06:40:00;96307.63;;;9.25;70.34
41624;BME280;27319;50.306;18.926;2023-03-14T06:44:01;96310.13;;;9.33;70.82
41624;BME280;27319;50.306;18.926;2023-03-14T06:48:02;96299.41;;;9.46;70.83
41624;BME280;27319;50.306;18.926;2023-03-14T06:52:03;96303.91;;;9.58;70.49
41624;BME280;27319;50.306;18.926;2023-03-14T06:56:04;96291.09;;;9.73;70.16
41624;BME280;27319;50.306;18.926;2023-03-14T07:00:05;96284.28;;;9.84;68.70
41624;BME280;27319;50.306;18.926;2023-03-14T07:04:06;96288.16;;;9.88;69.66
41624;BME280;27319;50.306;18.926;2023-03-14T07:08:07;96325.44;;;10.02;68.25
41624;BME280;27319;50.306;18.926;2023-03-14T07:12:07;96312.03;;;10.15;67.84
41624;BME280;27319;50.306;18.926;2023-03-14T07:16:09;96315.53;;;10.09;68.92
41624;BME280;27319;50.306;18.926;2023-03-14T07:20:09;96342.50;;;10.27;67.66
41624;BME280;27319;50.306;18.926;2023-03-14T07:24:10;96332.78;;;10.26;68.19
41624;BME280;27319;50.306;18.926;2023-03-14T07:28:11;96344.91;;;10.42;66.56
41624;BME280;27319;50.306;18.926;2023-03-14T07:32:12;96341.16;;;10.49;66.38
41624;BME280;27319;50.306;18.926;2023-03-14T07:36:13;96354.69;;;10.67;65.65
41624;BME280;27319;50.306;18.926;2023-03-14T07:40:14;96345.94;;;10.78;65.87
41624;BME280;27319;50.306;18.926;2023-03-14T07:44:14;96357.25;;;10.86;64.86
41624;BME280;27319;50.306;18.926;2023-03-14T07:48:15;96361.72;;;10.99;65.12
41624;BME280;27319;50.306;18.926;2023-03-14T07:52:16;96356.81;;;10.96;66.10
41624;BME280;27319;50.306;18.926;2023-03-14T07:56:17;96357.28;;;11.17;65.35
41624;BME280;27319;50.306;18.926;2023-03-14T08:00:18;96361.09;;;11.28;63.80
41624;BME280;27319;50.306;18.926;2023-03-14T08:04:19;96347.75;;;11.46;63.82
41624;BME280;27319;50.306;18.926;2023-03-14T08:08:19;96363.59;;;11.54;63.07
41624;BME280;27319;50.306;18.926;2023-03-14T08:12:20;96377.38;;;11.64;63.03
41624;BME280;27319;50.306;18.926;2023-03-14T08:16:21;96375.53;;;11.64;63.95
41624;BME280;27319;50.306;18.926;2023-03-14T08:20:23;96375.91;;;11.68;62.77
41624;BME280;27319;50.306;18.926;2023-03-14T08:24:23;96389.38;;;11.86;62.22
41624;BME280;27319;50.306;18.926;2023-03-14T08:28:24;96391.81;;;11.94;62.04
41624;BME280;27319;50.306;18.926;2023-03-14T08:32:24;96380.16;;;12.00;62.10
41624;BME280;27319;50.306;18.926;2023-03-14T08:36:26;96379.19;;;12.30;61.39
41624;BME280;27319;50.306;18.926;2023-03-14T08:40:26;96370.00;;;12.38;61.53
41624;BME280;27319;50.306;18.926;2023-03-14T08:44:27;96377.66;;;12.41;60.58
41624;BME280;27319;50.306;18.926;2023-03-14T08:48:28;96382.56;;;12.44;60.52
41624;BME280;27319;50.306;18.926;2023-03-14T08:52:29;96368.16;;;12.38;61.00
41624;BME280;27319;50.306;18.926;2023-03-14T08:56:30;96377.88;;;12.39;61.00
41624;BME280;27319;50.306;18.926;2023-03-14T09:00:31;96392.63;;;12.30;61.71
41624;BME280;27319;50.306;18.926;2023-03-14T09:04:11;96387.78;;;12.39;61.69
41624;BME280;27319;50.306;18.926;2023-03-14T09:07:12;96393.78;;;12.41;61.27
41624;BME280;27319;50.306;18.926;2023-03-14T09:10:13;96388.56;;;12.28;61.65
41624;BME280;27319;50.306;18.926;2023-03-14T09:13:34;96408.13;;;12.35;61.55
41624;BME280;27319;50.306;18.926;2023-03-14T09:17:35;96408.50;;;12.38;61.66
41624;BME280;27319;50.306;18.926;2023-03-14T09:21:36;96406.50;;;12.34;61.89
41624;BME280;27319;50.306;18.926;2023-03-14T09:25:37;96413.78;;;12.27;62.01
41624;BME280;27319;50.306;18.926;2023-03-14T09:29:38;96419.63;;;12.24;62.31
41624;BME280;27319;50.306;18.926;2023-03-14T09:33:38;96422.00;;;12.32;61.81
41624;BME280;27319;50.306;18.926;2023-03-14T09:37:39;96395.63;;;12.40;62.19
41624;BME280;27319;50.306;18.926;2023-03-14T09:41:24;96399.91;;;12.48;61.62
41624;BME280;27319;50.306;18.926;2023-03-14T09:45:28;96409.03;;;12.65;61.85
41624;BME280;27319;50.306;18.926;2023-03-14T09:49:28;96403.84;;;12.81;61.12
41624;BME280;27319;50.306;18.926;2023-03-14T09:53:37;96423.06;;;12.85;61.31
41624;BME280;27319;50.306;18.926;2023-03-14T09:57:35;96427.06;;;13.00;60.70
41624;BME280;27319;50.306;18.926;2023-03-14T10:01:36;96404.09;;;12.98;61.15
41624;BME280;27319;50.306;18.926;2023-03-14T10:05:37;96437.50;;;12.90;61.20
41624;BME280;27319;50.306;18.926;2023-03-14T10:09:43;96445.06;;;12.82;61.51
41624;BME280;27319;50.306;18.926;2023-03-14T10:13:49;96430.91;;;12.86;61.44
41624;BME280;27319;50.306;18.926;2023-03-14T10:17:48;96434.59;;;12.92;61.17
41624;BME280;27319;50.306;18.926;2023-03-14T10:21:55;96444.16;;;12.88;61.06
41624;BME280;27319;50.306;18.926;2023-03-14T10:26:08;96454.63;;;12.78;61.23
41624;BME280;27319;50.306;18.926;2023-03-14T10:30:14;96447.00;;;12.57;62.67
41624;BME280;27319;50.306;18.926;2023-03-14T10:34:37;96451.03;;;12.66;62.94
41624;BME280;27319;50.306;18.926;2023-03-14T10:38:22;96446.56;;;12.60;63.72
41624;BME280;27319;50.306;18.926;2023-03-14T10:42:24;96439.38;;;12.36;64.93
41624;BME280;27319;50.306;18.926;2023-03-14T10:46:28;96445.34;;;12.38;64.76
41624;BME280;27319;50.306;18.926;2023-03-14T10:54:32;96433.44;;;12.27;65.21
41624;BME280;27319;50.306;18.926;2023-03-14T10:58:38;96431.69;;;12.15;66.02
41624;BME280;27319;50.306;18.926;2023-03-14T11:13:54;96446.06;;;12.27;65.04
41624;BME280;27319;50.306;18.926;2023-03-14T11:21:55;96436.53;;;12.06;67.79
41624;BME280;27319;50.306;18.926;2023-03-14T11:36:41;96442.50;;;11.90;68.88
41624;BME280;27319;50.306;18.926;2023-03-14T11:40:41;96431.03;;;11.77;69.96
41624;BME280;27319;50.306;18.926;2023-03-14T11:44:43;96436.34;;;11.59;70.25
41624;BME280;27319;50.306;18.926;2023-03-14T11:48:31;96449.50;;;11.67;69.60
41624;BME280;27319;50.306;18.926;2023-03-14T11:52:37;96451.00;;;11.56;69.89
41624;BME280;27319;50.306;18.926;2023-03-14T11:57:24;96440.44;;;11.61;69.95
41624;BME280;27319;50.306;18.926;2023-03-14T12:00:41;96428.94;;;11.48;70.37
41624;BME280;27319;50.306;18.926;2023-03-14T12:04:34;96423.56;;;11.48;70.96
41624;BME280;27319;50.306;18.926;2023-03-14T12:12:05;96421.47;;;11.50;71.17
41624;BME280;27319;50.306;18.926;2023-03-14T12:16:07;96421.06;;;11.53;70.95
41624;BME280;27319;50.306;18.926;2023-03-14T12:20:17;96422.72;;;11.54;70.85
41624;BME280;27319;50.306;18.926;2023-03-14T12:24:22;96427.72;;;11.44;71.24
41624;BME280;27319;50.306;18.926;2023-03-14T12:28:30;96420.72;;;11.43;71.58
41624;BME280;27319;50.306;18.926;2023-03-14T12:32:40;96414.59;;;11.29;71.97
41624;BME280;27319;50.306;18.926;2023-03-14T12:40:17;96409.25;;;11.29;73.04
41624;BME280;27319;50.306;18.926;2023-03-14T12:44:39;96404.09;;;11.52;73.08
41624;BME280;27319;50.306;18.926;2023-03-14T12:48:04;96396.78;;;11.35;74.05
41624;BME280;27319;50.306;18.926;2023-03-14T12:51:42;96400.97;;;11.31;75.20
41624;BME280;27319;50.306;18.926;2023-03-14T12:55:15;96394.47;;;11.38;75.43
41624;BME280;27319;50.306;18.926;2023-03-14T13:03:23;96400.66;;;11.45;74.38
41624;BME280;27319;50.306;18.926;2023-03-14T13:06:48;96406.09;;;11.32;75.42
41624;BME280;27319;50.306;18.926;2023-03-14T13:10:18;96398.09;;;11.26;76.88
41624;BME280;27319;50.306;18.926;2023-03-14T13:14:18;96396.78;;;11.35;75.81
41624;BME280;27319;50.306;18.926;2023-03-14T13:18:41;96392.53;;;11.27;77.54
41624;BME280;27319;50.306;18.926;2023-03-14T13:22:45;96387.78;;;11.23;77.06
41624;BME280;27319;50.306;18.926;2023-03-14T13:26:42;96393.41;;;11.21;77.61
41624;BME280;27319;50.306;18.926;2023-03-14T13:30:23;96384.72;;;11.19;77.45
41624;BME280;27319;50.306;18.926;2023-03-14T13:34:26;96404.94;;;11.22;78.09
41624;BME280;27319;50.306;18.926;2023-03-14T13:38:27;96397.94;;;11.21;78.38
41624;BME280;27319;50.306;18.926;2023-03-14T13:42:30;96408.41;;;11.29;78.11
41624;BME280;27319;50.306;18.926;2023-03-14T13:46:16;96410.13;;;11.17;78.78
41624;BME280;27319;50.306;18.926;2023-03-14T13:49:25;96418.88;;;11.06;79.01
41624;BME280;27319;50.306;18.926;2023-03-14T13:52:31;96425.00;;;11.19;78.85
41624;BME280;27319;50.306;18.926;2023-03-14T13:55:52;96419.81;;;11.18;79.06
41624;BME280;27319;50.306;18.926;2023-03-14T14:00:03;96413.88;;;11.09;80.07
41624;BME280;27319;50.306;18.926;2023-03-14T14:03:45;96402.16;;;11.04;81.23
41624;BME280;27319;50.306;18.926;2023-03-14T14:06:52;96406.75;;;10.97;81.80
41624;BME280;27319;50.306;18.926;2023-03-14T14:09:55;96430.25;;;11.01;81.20
41624;BME280;27319;50.306;18.926;2023-03-14T14:13:00;96423.47;;;10.99;82.26
41624;BME280;27319;50.306;18.926;2023-03-14T14:16:24;96419.38;;;10.90;82.87
41624;BME280;27319;50.306;18.926;2023-03-14T14:24:04;96397.34;;;10.82;84.72
41624;BME280;27319;50.306;18.926;2023-03-14T14:35:59;96394.78;;;10.93;84.35
41624;BME280;27319;50.306;18.926;2023-03-14T14:39:52;96381.41;;;10.86;85.62
41624;BME280;27319;50.306;18.926;2023-03-14T14:43:52;96391.72;;;10.89;85.76
41624;BME280;27319;50.306;18.926;2023-03-14T14:47:54;96390.88;;;10.89;85.19
41624;BME280;27319;50.306;18.926;2023-03-14T14:52:00;96381.81;;;10.90;85.39
41624;BME280;27319;50.306;18.926;2023-03-14T14:55:56;96366.41;;;10.79;85.51
41624;BME280;27319;50.306;18.926;2023-03-14T14:59:56;96358.25;;;10.92;85.12
41624;BME280;27319;50.306;18.926;2023-03-14T15:03:36;96364.84;;;10.96;85.25
41624;BME280;27319;50.306;18.926;2023-03-14T15:06:37;96367.34;;;10.91;85.69
41624;BME280;27319;50.306;18.926;2023-03-14T15:09:42;96358.91;;;10.88;85.97
41624;BME280;27319;50.306;18.926;2023-03-14T15:12:42;96374.78;;;10.89;85.08
41624;BME280;27319;50.306;18.926;2023-03-14T15:15:44;96377.25;;;10.90;84.95
41624;BME280;27319;50.306;18.926;2023-03-14T15:19:14;96371.88;;;10.97;84.71
41624;BME280;27319;50.306;18.926;2023-03-14T15:23:14;96367.38;;;10.84;86.41
41624;BME280;27319;50.306;18.926;2023-03-14T15:27:13;96367.97;;;10.86;86.52
41624;BME280;27319;50.306;18.926;2023-03-14T15:31:15;96358.47;;;10.90;85.65
41624;BME280;27319;50.306;18.926;2023-03-14T15:35:15;96352.53;;;10.82;86.26
41624;BME280;27319;50.306;18.926;2023-03-14T15:39:16;96348.00;;;10.82;85.84
41624;BME280;27319;50.306;18.926;2023-03-14T15:43:17;96339.75;;;10.84;85.89
41624;BME280;27319;50.306;18.926;2023-03-14T15:47:18;96329.06;;;10.71;87.14
41624;BME280;27319;50.306;18.926;2023-03-14T15:51:19;96312.22;;;10.57;87.95
41624;BME280;27319;50.306;18.926;2023-03-14T15:55:19;96303.97;;;10.59;86.63
41624;BME280;27319;50.306;18.926;2023-03-14T15:59:20;96294.88;;;10.60;85.95
41624;BME280;27319;50.306;18.926;2023-03-14T16:03:01;96306.03;;;10.57;86.39
41624;BME280;27319;50.306;18.926;2023-03-14T16:06:03;96300.50;;;10.52;85.87
41624;BME280;27319;50.306;18.926;2023-03-14T16:09:04;96311.22;;;10.59;86.28
41624;BME280;27319;50.306;18.926;2023-03-14T16:12:25;96341.44;;;10.72;84.34
41624;BME280;27319;50.306;18.926;2023-03-14T16:16:07;96354.00;;;10.78;84.21
41624;BME280;27319;50.306;18.926;2023-03-14T16:19:08;96360.22;;;10.72;84.47
41624;BME280;27319;50.306;18.926;2023-03-14T16:22:09;96355.50;;;10.68;84.42
41624;BME280;27319;50.306;18.926;2023-03-14T16:25:11;96360.47;;;10.71;83.74
41624;BME280;27319;50.306;18.926;2023-03-14T16:28:12;96372.47;;;10.62;84.23
41624;BME280;27319;50.306;18.926;2023-03-14T16:31:33;96373.72;;;10.59;84.93
41624;BME280;27319;50.306;18.926;2023-03-14T16:35:34;96378.84;;;10.67;84.11
41624;BME280;27319;50.306;18.926;2023-03-14T16:39:34;96388.16;;;10.58;84.28
41624;BME280;27319;50.306;18.926;2023-03-14T16:43:16;96396.94;;;10.78;83.74
41624;BME280;27319;50.306;18.926;2023-03-14T16:46:17;96397.63;;;10.61;84.39
41624;BME280;27319;50.306;18.926;2023-03-14T16:49:18;96385.28;;;10.53;85.12
41624;BME280;27319;50.306;18.926;2023-03-14T16:52:39;96378.09;;;10.41;85.25
41624;BME280;27319;50.306;18.926;2023-03-14T16:56:20;96371.94;;;10.40;85.27
41624;BME280;27319;50.306;18.926;2023-03-14T16:59:21;96384.16;;;10.23;86.09
41624;BME280;27319;50.306;18.926;2023-03-14T17:02:42;96374.69;;;10.14;86.19
41624;BME280;27319;50.306;18.926;2023-03-14T17:06:25;96379.25;;;10.01;86.87
41624;BME280;27319;50.306;18.926;2023-03-14T17:09:27;96372.47;;;9.92;87.18
41624;BME280;27319;50.306;18.926;2023-03-14T17:12:28;96382.34;;;9.98;87.13
41624;BME280;27319;50.306;18.926;2023-03-14T17:15:52;96385.44;;;9.88;87.34
41624;BME280;27319;50.306;18.926;2023-03-14T17:19:45;96392.84;;;9.86;87.94
41624;BME280;27319;50.306;18.926;2023-03-14T17:23:05;96390.00;;;9.68;88.05
41624;BME280;27319;50.306;18.926;2023-03-14T17:26:46;96395.16;;;9.57;88.91
41624;BME280;27319;50.306;18.926;2023-03-14T17:29:47;96405.28;;;9.55;88.43
41624;BME280;27319;50.306;18.926;2023-03-14T17:32:49;96411.22;;;9.50;89.02
41624;BME280;27319;50.306;18.926;2023-03-14T17:35:49;96406.69;;;9.44;89.07
41624;BME280;27319;50.306;18.926;2023-03-14T17:39:11;96392.88;;;9.34;89.74
41624;BME280;27319;50.306;18.926;2023-03-14T17:43:02;96393.53;;;9.36;89.69
41624;BME280;27319;50.306;18.926;2023-03-14T17:46:22;96390.84;;;9.36;89.56
41624;BME280;27319;50.306;18.926;2023-03-14T17:50:25;96393.94;;;9.27;89.64
41624;BME280;27319;50.306;18.926;2023-03-14T17:54:26;96394.94;;;9.19;89.80
41624;BME280;27319;50.306;18.926;2023-03-14T17:58:28;96406.69;;;9.31;89.27
41624;BME280;27319;50.306;18.926;2023-03-14T18:02:28;96410.19;;;9.25;89.25
41624;BME280;27319;50.306;18.926;2023-03-14T18:06:10;96409.75;;;9.15;89.70
41624;BME280;27319;50.306;18.926;2023-03-14T18:09:12;96415.53;;;9.25;88.80
41624;BME280;27319;50.306;18.926;2023-03-14T18:12:33;96420.03;;;9.12;89.38
41624;BME280;27319;50.306;18.926;2023-03-14T18:16:34;96424.53;;;8.98;89.76
41624;BME280;27319;50.306;18.926;2023-03-14T18:19:53;96438.56;;;9.00;89.43
41624;BME280;27319;50.306;18.926;2023-03-14T18:23:15;96442.22;;;8.93;89.93
41624;BME280;27319;50.306;18.926;2023-03-14T18:27:16;96438.94;;;8.97;89.29
41624;BME280;27319;50.306;18.926;2023-03-14T18:31:17;96443.88;;;8.94;89.85
41624;BME280;27319;50.306;18.926;2023-03-14T18:34:54;96457.78;;;8.76;90.13
41624;BME280;27319;50.306;18.926;2023-03-14T18:38:19;96451.22;;;8.79;89.74
41624;BME280;27319;50.306;18.926;2023-03-14T18:42:20;96461.72;;;8.80;90.30
41624;BME280;27319;50.306;18.926;2023-03-14T18:46:21;96460.69;;;8.81;90.17
41624;BME280;27319;50.306;18.926;2023-03-14T18:50:22;96465.31;;;9.00;89.63
41624;BME280;27319;50.306;18.926;2023-03-14T18:54:03;96469.38;;;8.90;89.80
41624;BME280;27319;50.306;18.926;2023-03-14T18:57:04;96468.19;;;9.05;89.20
41624;BME280;27319;50.306;18.926;2023-03-14T19:00:25;96474.78;;;9.09;88.59
41624;BME280;27319;50.306;18.926;2023-03-14T19:04:14;96477.03;;;9.06;88.77
41624;BME280;27319;50.306;18.926;2023-03-14T19:08:15;96485.75;;;9.21;87.84
41624;BME280;27319;50.306;18.926;2023-03-14T19:12:04;96475.47;;;9.24;87.36
41624;BME280;27319;50.306;18.926;2023-03-14T19:16:05;96474.41;;;9.19;87.41
41624;BME280;27319;50.306;18.926;2023-03-14T19:19:30;96474.66;;;9.30;86.55
41624;BME280;27319;50.306;18.926;2023-03-14T19:22:31;96468.25;;;9.31;86.37
41624;BME280;27319;50.306;18.926;2023-03-14T19:25:52;96471.38;;;9.41;85.99
41624;BME280;27319;50.306;18.926;2023-03-14T19:29:33;96463.94;;;9.37;85.82
41624;BME280;27319;50.306;18.926;2023-03-14T19:32:58;96481.03;;;9.29;85.85
41624;BME280;27319;50.306;18.926;2023-03-14T19:36:39;96480.22;;;9.35;85.38
41624;BME280;27319;50.306;18.926;2023-03-14T19:40:00;96478.94;;;9.18;86.34
41624;BME280;27319;50.306;18.926;2023-03-14T19:44:01;96471.69;;;9.06;86.79
41624;BME280;27319;50.306;18.926;2023-03-14T19:48:02;96464.94;;;9.10;86.27
41624;BME280;27319;50.306;18.926;2023-03-14T19:52:02;96469.84;;;9.06;86.53
41624;BME280;27319;50.306;18.926;2023-03-14T19:55:43;96474.19;;;9.14;85.87
41624;BME280;27319;50.306;18.926;2023-03-14T19:58:45;96468.00;;;9.00;86.62
41624;BME280;27319;50.306;18.926;2023-03-14T20:02:08;96471.09;;;9.04;86.45
41624;BME280;27319;50.306;18.926;2023-03-14T20:05:48;96482.38;;;8.93;86.47
41624;BME280;27319;50.306;18.926;2023-03-14T20:08:49;96488.78;;;9.05;86.29
41624;BME280;27319;50.306;18.926;2023-03-14T20:11:50;96496.63;;;9.06;86.04
41624;BME280;27319;50.306;18.926;2023-03-14T20:15:12;96500.31;;;9.12;85.90
41624;BME280;27319;50.306;18.926;2023-03-14T20:18:52;96506.91;;;9.09;85.43
41624;BME280;27319;50.306;18.926;2023-03-14T20:22:13;96513.25;;;8.95;86.65
41624;BME280;27319;50.306;18.926;2023-03-14T20:26:15;96512.81;;;8.98;86.28
41624;BME280;27319;50.306;18.926;2023-03-14T20:29:35;96514.31;;;9.07;85.39
41624;BME280;27319;50.306;18.926;2023-03-14T20:32:56;96500.75;;;9.09;84.99
41624;BME280;27319;50.306;18.926;2023-03-14T20:36:57;96504.44;;;9.14;85.02
41624;BME280;27319;50.306;18.926;2023-03-14T20:40:58;96512.06;;;9.17;84.21
41624;BME280;27319;50.306;18.926;2023-03-14T20:44:39;96511.44;;;9.15;84.09
41624;BME280;27319;50.306;18.926;2023-03-14T20:48:00;96508.97;;;9.07;84.34
41624;BME280;27319;50.306;18.926;2023-03-14T20:51:41;96512.25;;;9.09;84.32